Time;durP1;ratioP1;P1;durP2;ratioP2;P2;SDS_P1;SDS_P2;PMS_P1;PMS_P2;Temp;Humidity;BMP_temperature;BMP_pressure;BME280_temperature;BME280_humidity;BME280_pressure;Samples;Min_cycle;Max_cycle;Signal;HPM_P1;HPM_P2
2022/08/26 00:02:19;;;;;;;7.38;5.78;;;23.00;99.90;;;;;;5054350;28;20207;-63
2022/08/26 00:04:46;;;;;;;8.43;6.10;;;22.80;99.90;;;;;;5033246;28;20209;-63
2022/08/26 00:07:14;;;;;;;9.88;5.90;;;22.80;99.90;;;;;;5049476;28;20192;-62
2022/08/26 00:09:41;;;;;;;11.35;6.40;;;22.80;99.90;;;;;;5039511;28;20209;-63
2022/08/26 00:12:09;;;;;;;11.63;6.57;;;22.80;99.90;;;;;;5053757;28;20550;-63
2022/08/26 00:14:36;;;;;;;7.63;6.30;;;23.00;99.90;;;;;;5050445;28;20283;-63
2022/08/26 00:17:03;;;;;;;8.65;5.97;;;22.70;1.00;;;;;;5056112;28;20211;-63
2022/08/26 00:19:30;;;;;;;9.20;5.65;;;22.90;14.30;;;;;;5022570;28;20481;-63
2022/08/26 00:21:56;;;;;;;7.95;6.10;;;22.60;1.00;;;;;;5059832;28;20207;-63
2022/08/26 00:24:25;;;;;;;11.00;6.30;;;22.90;82.40;;;;;;5040332;28;20425;-62
2022/08/26 00:26:51;;;;;;;9.75;6.15;;;22.60;99.90;;;;;;5045815;28;20204;-63
2022/08/26 00:29:19;;;;;;;7.63;5.70;;;22.60;99.90;;;;;;5042272;28;20205;-63
2022/08/26 00:31:46;;;;;;;9.98;6.18;;;22.60;1.00;;;;;;5056867;28;20299;-63
2022/08/26 00:34:15;;;;;;;10.55;6.28;;;22.60;1.00;;;;;;5054479;28;20203;-62
2022/08/26 00:36:42;;;;;;;11.88;6.57;;;22.50;1.00;;;;;;5033013;28;20201;-63
2022/08/26 00:39:09;;;;;;;11.25;6.82;;;22.20;99.90;;;;;;5027849;28;20885;-63
2022/08/26 00:41:40;;;;;;;6.30;5.53;;;22.40;99.90;;;;;;5046529;28;20215;-63
2022/08/26 00:44:09;;;;;;;9.73;6.78;;;23.50;1.00;;;;;;5030996;28;20475;-63
2022/08/26 00:46:40;;;;;;;10.77;6.40;;;22.30;99.90;;;;;;5058261;28;20197;-63
2022/08/26 00:49:12;;;;;;;10.98;6.38;;;22.40;99.90;;;;;;5044404;28;20918;-63
2022/08/26 00:51:45;;;;;;;9.27;6.13;;;22.40;99.90;;;;;;5033340;28;20232;-63
2022/08/26 00:54:12;;;;;;;11.20;6.35;;;22.40;99.90;;;;;;5030812;28;20711;-63
2022/08/26 00:56:48;;;;;;;7.63;6.13;;;22.40;99.90;;;;;;5045764;28;20200;-63
2022/08/26 00:59:16;;;;;;;9.48;6.50;;;22.40;99.90;;;;;;5033726;28;21136;-63
2022/08/26 01:01:43;;;;;;;10.93;6.38;;;22.40;99.90;;;;;;5059402;28;20662;-63
2022/08/26 01:04:11;;;;;;;9.88;6.80;;;22.40;99.90;;;;;;5051753;28;20752;-63
2022/08/26 01:06:38;;;;;;;10.57;6.45;;;22.40;99.90;;;;;;5058926;28;20197;-63
2022/08/26 01:09:05;;;;;;;11.82;6.47;;;22.40;99.90;;;;;;5017719;28;21998;-63
2022/08/26 01:11:32;;;;;;;9.38;6.60;;;22.40;99.90;;;;;;5055975;28;20231;-62
2022/08/26 01:14:04;;;;;;;9.40;6.50;;;22.50;99.90;;;;;;5035111;28;20208;-62
2022/08/26 01:16:32;;;;;;;9.43;6.88;;;22.40;99.90;;;;;;5042739;28;20216;-63
2022/08/26 01:19:02;;;;;;;10.23;6.60;;;22.40;99.90;;;;;;5047674;28;20247;-63
2022/08/26 01:21:35;;;;;;;11.10;6.78;;;22.40;1.00;;;;;;5056586;28;20204;-63
2022/08/26 01:24:05;;;;;;;8.23;6.93;;;22.30;1.00;;;;;;5013631;28;20242;-62
2022/08/26 01:26:35;;;;;;;11.70;6.53;;;22.30;1.00;;;;;;5040544;28;20208;-63
2022/08/26 01:29:05;;;;;;;12.43;6.72;;;21.00;1.00;;;;;;5027184;28;20323;-62
2022/08/26 01:31:37;;;;;;;8.32;6.30;;;22.40;1.00;;;;;;5043554;28;20207;-63
2022/08/26 01:34:10;;;;;;;7.78;6.38;;;22.20;1.00;;;;;;5051826;28;20201;-63
2022/08/26 01:36:39;;;;;;;8.35;6.82;;;22.10;1.00;;;;;;5054362;28;20208;-62
2022/08/26 01:39:08;;;;;;;9.88;7.40;;;21.90;1.00;;;;;;5014706;28;20290;-63
2022/08/26 01:41:36;;;;;;;14.35;7.25;;;;;;;;;;5042184;28;20208;-63
2022/08/26 01:44:04;;;;;;;13.73;6.65;;;22.10;1.00;;;;;;5031044;28;20853;-63
2022/08/26 01:46:32;;;;;;;13.63;7.60;;;22.10;26.30;;;;;;5055477;28;20193;-63
2022/08/26 01:49:03;;;;;;;11.75;7.22;;;22.10;99.90;;;;;;5037955;28;20280;-63
2022/08/26 01:51:31;;;;;;;9.88;7.07;;;22.00;1.00;;;;;;5056659;28;20217;-63
2022/08/26 01:53:58;;;;;;;9.20;6.53;;;22.00;1.00;;;;;;5029115;28;20211;-63
2022/08/26 01:56:26;;;;;;;10.90;6.68;;;21.60;1.00;;;;;;5044002;28;20611;-63
2022/08/26 01:58:57;;;;;;;15.50;7.40;;;21.90;99.90;;;;;;5024529;28;20460;-62
2022/08/26 02:01:25;;;;;;;14.32;7.85;;;21.80;1.00;;;;;;5050901;28;20421;-63
2022/08/26 02:04:01;;;;;;;12.68;7.65;;;21.80;22.30;;;;;;5042839;28;20205;-62
2022/08/26 02:06:27;;;;;;;11.38;8.38;;;21.80;99.90;;;;;;5048929;28;20652;-63
2022/08/26 02:08:57;;;;;;;14.65;6.88;;;21.80;99.90;;;;;;5048943;28;20196;-63
2022/08/26 02:11:25;;;;;;;11.80;7.25;;;22.40;1.00;;;;;;5025763;28;20356;-63
2022/08/26 02:13:56;;;;;;;14.73;7.18;;;21.90;1.00;;;;;;5038810;28;20205;-63
2022/08/26 02:16:27;;;;;;;11.27;7.72;;;21.70;1.00;;;;;;5047062;28;20224;-63
2022/08/26 02:18:55;;;;;;;12.68;7.25;;;22.20;1.00;;;;;;5036194;28;20228;-62
2022/08/26 02:21:22;;;;;;;11.43;7.22;;;21.90;1.00;;;;;;5055002;28;20515;-63
2022/08/26 02:23:48;;;;;;;12.45;7.13;;;21.90;1.00;;;;;;5030386;28;20572;-62
2022/08/26 02:26:19;;;;;;;12.25;7.30;;;21.90;1.00;;;;;;5027849;28;20248;-63
2022/08/26 02:28:52;;;;;;;11.63;7.47;;;21.90;1.00;;;;;;5038146;28;20274;-63
2022/08/26 02:31:19;;;;;;;12.88;7.22;;;21.80;1.00;;;;;;5038778;28;20212;-63
2022/08/26 02:33:46;;;;;;;11.15;7.28;;;22.80;1.00;;;;;;5047029;28;20212;-62
2022/08/26 02:36:19;;;;;;;12.95;6.68;;;21.70;1.00;;;;;;5049947;28;20317;-63
2022/08/26 02:38:46;;;;;;;11.32;7.07;;;21.60;1.00;;;;;;5057417;28;20224;-63
2022/08/26 02:41:13;;;;;;;10.23;7.65;;;21.60;1.00;;;;;;5026252;28;20428;-63
2022/08/26 02:43:39;;;;;;;10.55;7.13;;;21.60;3.10;;;;;;5047173;28;20200;-62
2022/08/26 02:46:08;;;;;;;12.32;7.20;;;21.60;7.70;;;;;;5043457;28;20259;-63
2022/08/26 02:48:34;;;;;;;10.27;7.45;;;21.60;5.80;;;;;;5039903;28;20197;-63
2022/08/26 02:51:02;;;;;;;10.60;7.18;;;;;;;;;;5056294;28;20196;-63
2022/08/26 02:53:29;;;;;;;10.57;7.57;;;21.50;98.70;;;;;;5061355;28;20192;-63
2022/08/26 02:55:56;;;;;;;11.52;7.30;;;21.20;99.90;;;;;;5047111;28;20227;-63
2022/08/26 02:58:23;;;;;;;10.45;7.65;;;21.60;99.90;;;;;;5046949;28;20205;-63
2022/08/26 03:00:50;;;;;;;13.15;8.05;;;21.50;99.90;;;;;;5046699;28;20286;-62
2022/08/26 03:03:19;;;;;;;9.30;7.63;;;21.30;99.90;;;;;;5034448;28;20208;-63
2022/08/26 03:05:46;;;;;;;9.50;7.18;;;21.50;99.90;;;;;;5047401;28;20226;-63
2022/08/26 03:08:13;;;;;;;9.32;7.90;;;21.40;99.90;;;;;;5060825;28;20200;-63
2022/08/26 03:10:40;;;;;;;11.63;7.53;;;21.30;99.90;;;;;;5050006;28;20205;-63
2022/08/26 03:13:07;;;;;;;11.80;7.53;;;21.30;99.90;;;;;;5031918;28;20208;-63
2022/08/26 03:15:34;;;;;;;12.48;7.60;;;21.30;99.90;;;;;;5046419;28;20662;-62
2022/08/26 03:18:01;;;;;;;13.00;8.05;;;21.30;99.90;;;;;;5040673;28;20226;-63
2022/08/26 03:20:29;;;;;;;14.68;8.27;;;21.40;99.90;;;;;;5044603;28;20224;-63
2022/08/26 03:22:56;;;;;;;11.55;7.95;;;21.30;99.90;;;;;;5055640;28;20197;-63
2022/08/26 03:25:24;;;;;;;8.82;7.32;;;21.40;99.90;;;;;;5055830;28;20294;-63
2022/08/26 03:27:51;;;;;;;13.27;8.00;;;21.20;99.90;;;;;;5030731;28;20208;-63
2022/08/26 03:33:03;;;;;;;12.57;8.00;;;21.20;99.90;;;;;;5035502;28;20215;-63
2022/08/26 03:35:32;;;;;;;9.20;7.50;;;21.30;1.00;;;;;;5048918;28;20590;-63
2022/08/26 03:38:02;;;;;;;13.52;8.73;;;21.20;1.00;;;;;;5044577;28;20707;-63
2022/08/26 03:40:30;;;;;;;12.43;8.45;;;21.30;1.00;;;;;;5059209;28;20256;-63
2022/08/26 03:42:57;;;;;;;12.98;7.93;;;21.20;1.00;;;;;;5036141;28;20235;-63
2022/08/26 03:45:24;;;;;;;14.77;8.25;;;21.20;1.00;;;;;;5043673;28;21879;-63
2022/08/26 03:47:51;;;;;;;10.07;8.27;;;21.10;1.00;;;;;;5060330;28;20192;-63
2022/08/26 03:50:20;;;;;;;13.23;8.02;;;21.00;1.00;;;;;;5044145;28;20204;-63
2022/08/26 03:52:50;;;;;;;10.23;8.25;;;21.00;1.00;;;;;;5052469;28;20208;-63
2022/08/26 03:55:18;;;;;;;11.38;8.40;;;20.20;1.00;;;;;;5056131;28;20197;-63
2022/08/26 03:57:44;;;;;;;19.02;8.75;;;20.90;1.00;;;;;;5018439;28;26339;-63
2022/08/26 04:00:14;;;;;;;13.45;8.30;;;20.90;1.00;;;;;;5055399;28;20228;-62
2022/08/26 04:02:42;;;;;;;17.58;8.88;;;21.00;1.00;;;;;;5031438;28;20228;-63
2022/08/26 04:05:10;;;;;;;10.60;8.45;;;21.00;1.00;;;;;;5047532;28;20295;-63
2022/08/26 04:07:38;;;;;;;13.70;8.25;;;21.00;1.00;;;;;;5049736;28;20196;-63
2022/08/26 04:10:07;;;;;;;14.75;8.32;;;20.90;1.00;;;;;;5055338;28;20207;-63
2022/08/26 04:12:34;;;;;;;15.15;8.13;;;20.80;1.00;;;;;;5057942;28;20704;-63
2022/08/26 04:15:01;;;;;;;13.55;8.57;;;20.70;1.00;;;;;;5039056;28;20201;-63
2022/08/26 04:17:28;;;;;;;13.40;8.52;;;20.60;1.00;;;;;;5033607;28;20211;-62
2022/08/26 04:19:55;;;;;;;13.55;8.38;;;20.70;1.00;;;;;;5051219;28;20246;-63
2022/08/26 04:22:22;;;;;;;15.43;9.05;;;20.80;1.00;;;;;;5054228;28;20220;-62
2022/08/26 04:24:48;;;;;;;10.23;8.40;;;20.70;1.00;;;;;;5052775;28;21062;-63
2022/08/26 04:27:17;;;;;;;12.27;8.35;;;20.80;1.00;;;;;;5056609;28;20215;-62
2022/08/26 04:29:45;;;;;;;10.95;8.70;;;20.70;1.00;;;;;;5031802;28;22229;-63
2022/08/26 04:32:12;;;;;;;11.65;8.70;;;20.60;1.00;;;;;;5045558;28;20241;-62
2022/08/26 04:34:39;;;;;;;16.90;8.20;;;20.60;1.00;;;;;;5046163;28;20204;-62
2022/08/26 04:37:07;;;;;;;9.93;7.82;;;20.30;1.00;;;;;;5033284;28;20230;-62
2022/08/26 04:39:33;;;;;;;12.60;8.60;;;20.50;1.00;;;;;;5055463;28;20231;-62
2022/08/26 04:42:01;;;;;;;16.05;8.95;;;20.40;1.00;;;;;;5055229;28;20196;-62
2022/08/26 04:44:30;;;;;;;13.88;7.90;;;20.40;1.00;;;;;;5021504;28;20205;-62
2022/08/26 04:46:58;;;;;;;14.18;9.00;;;20.60;1.00;;;;;;5049714;28;20227;-63
2022/08/26 04:49:25;;;;;;;14.45;9.90;;;20.70;1.00;;;;;;5029512;28;20325;-62
2022/08/26 04:51:52;;;;;;;14.63;8.77;;;20.70;1.00;;;;;;5048171;28;21119;-64
2022/08/26 04:54:19;;;;;;;12.68;8.38;;;20.90;1.00;;;;;;5045494;28;20215;-64
2022/08/26 04:56:48;;;;;;;13.63;8.68;;;20.80;1.00;;;;;;5049771;28;20962;-62
2022/08/26 04:59:17;;;;;;;15.18;9.15;;;20.90;1.00;;;;;;5047364;28;20865;-62
2022/08/26 05:01:47;;;;;;;12.90;8.77;;;20.80;1.00;;;;;;5023811;28;20693;-64
2022/08/26 05:04:14;;;;;;;13.55;8.63;;;20.80;1.00;;;;;;5035821;28;20236;-63
2022/08/26 05:06:41;;;;;;;14.15;9.25;;;20.90;1.00;;;;;;5043592;28;21330;-63
2022/08/26 05:09:08;;;;;;;13.32;8.77;;;20.80;1.00;;;;;;5053022;28;20241;-63
2022/08/26 05:11:36;;;;;;;17.63;9.80;;;20.70;1.00;;;;;;5050175;28;20228;-63
2022/08/26 05:14:03;;;;;;;14.82;9.77;;;20.70;1.00;;;;;;5045449;28;20223;-62
2022/08/26 05:16:30;;;;;;;16.40;9.68;;;20.70;1.00;;;;;;5027134;28;20843;-62
2022/08/26 05:18:58;;;;;;;16.40;9.90;;;20.60;1.00;;;;;;5031276;28;20220;-62
2022/08/26 05:21:27;;;;;;;15.20;9.63;;;20.60;1.00;;;;;;5043580;28;20228;-62
2022/08/26 05:23:55;;;;;;;14.95;9.70;;;20.60;1.00;;;;;;5048950;28;20382;-62
2022/08/26 05:26:25;;;;;;;17.45;9.73;;;20.60;1.00;;;;;;5049781;28;20220;-64
2022/08/26 05:28:53;;;;;;;21.98;9.95;;;20.70;1.00;;;;;;5037266;28;20247;-64
2022/08/26 05:31:22;;;;;;;13.48;10.05;;;20.20;1.00;;;;;;5018542;28;20227;-64
2022/08/26 05:33:49;;;;;;;15.82;9.95;;;20.60;1.00;;;;;;5056319;28;20459;-64
2022/08/26 05:36:20;;;;;;;16.63;9.93;;;20.60;1.00;;;;;;5040396;28;20205;-64
2022/08/26 05:38:47;;;;;;;13.82;10.13;;;21.30;1.00;;;;;;5039886;28;20208;-64
2022/08/26 05:41:16;;;;;;;15.48;10.20;;;20.70;1.00;;;;;;5049782;28;21134;-63
2022/08/26 05:43:43;;;;;;;20.35;9.88;;;20.90;1.00;;;;;;5048702;28;20217;-64
2022/08/26 05:46:10;;;;;;;17.65;11.10;;;21.10;1.00;;;;;;5025381;28;20227;-63
2022/08/26 05:48:37;;;;;;;16.30;9.63;;;20.90;1.00;;;;;;5056345;28;20795;-63
2022/08/26 05:51:07;;;;;;;17.52;10.75;;;20.90;1.00;;;;;;5038780;28;20204;-63
2022/08/26 05:53:36;;;;;;;18.15;10.32;;;21.00;1.00;;;;;;5059342;28;20196;-63
2022/08/26 05:56:04;;;;;;;18.33;9.95;;;21.00;1.00;;;;;;5054335;28;20197;-63
2022/08/26 05:58:31;;;;;;;13.60;9.95;;;21.10;1.00;;;;;;5056178;28;20203;-63
2022/08/26 06:01:01;;;;;;;18.40;10.48;;;22.60;1.00;;;;;;5029999;28;20262;-64
2022/08/26 06:03:28;;;;;;;18.02;9.65;;;22.10;1.00;;;;;;5027499;28;20851;-63
2022/08/26 06:05:55;;;;;;;14.75;10.40;;;21.20;1.00;;;;;;5044844;28;20270;-63
2022/08/26 06:08:22;;;;;;;22.10;10.27;;;21.50;1.00;;;;;;5037348;28;20224;-62
2022/08/26 06:10:53;;;;;;;17.10;9.98;;;21.20;1.00;;;;;;5055573;28;20871;-63
2022/08/26 06:13:22;;;;;;;17.73;10.45;;;21.30;1.00;;;;;;5051791;28;20221;-64
2022/08/26 06:15:50;;;;;;;16.15;9.88;;;21.30;1.00;;;;;;5054011;28;20255;-64
2022/08/26 06:18:20;;;;;;;12.30;10.30;;;21.20;1.00;;;;;;5027052;28;22411;-64
2022/08/26 06:20:48;;;;;;;16.70;10.55;;;21.40;1.00;;;;;;5055102;28;20231;-64
2022/08/26 06:26:05;;;;;;;16.20;9.82;;;21.30;1.00;;;;;;5058264;28;20755;-63
2022/08/26 06:28:32;;;;;;;17.08;10.90;;;21.30;1.00;;;;;;5054075;28;20239;-63
2022/08/26 06:30:59;;;;;;;14.48;10.07;;;21.60;1.00;;;;;;5053289;28;20217;-63
2022/08/26 06:33:27;;;;;;;15.05;9.90;;;21.60;1.00;;;;;;5014852;28;20232;-63
2022/08/26 06:35:55;;;;;;;20.73;10.07;;;21.80;1.00;;;;;;5049596;28;20339;-61
2022/08/26 06:38:22;;;;;;;13.52;9.52;;;21.80;1.00;;;;;;5036936;28;20609;-62
2022/08/26 06:40:51;;;;;;;16.45;9.50;;;21.90;1.00;;;;;;5053469;28;20232;-61
2022/08/26 06:43:22;;;;;;;21.17;11.23;;;21.70;1.00;;;;;;5049279;28;20510;-62
2022/08/26 06:45:50;;;;;;;14.10;10.15;;;22.00;1.00;;;;;;5050687;28;20270;-62
2022/08/26 06:48:19;;;;;;;15.27;9.93;;;21.80;1.00;;;;;;5027051;28;21908;-62
2022/08/26 06:50:49;;;;;;;15.23;9.50;;;22.10;1.00;;;;;;5046042;28;20221;-61
2022/08/26 06:53:16;;;;;;;13.95;10.63;;;22.10;1.00;;;;;;5043498;28;20226;-62
2022/08/26 06:55:45;;;;;;;18.98;10.82;;;21.90;1.00;;;;;;5044961;28;20290;-62
2022/08/26 06:58:13;;;;;;;15.27;10.55;;;22.20;1.00;;;;;;5047579;28;20220;-62
2022/08/26 07:00:41;;;;;;;15.95;10.48;;;22.20;1.00;;;;;;5052214;28;20232;-61
2022/08/26 07:03:08;;;;;;;17.88;10.00;;;22.30;1.00;;;;;;5034536;28;20703;-62
2022/08/26 07:05:35;;;;;;;13.80;9.95;;;22.20;1.00;;;;;;5045448;28;20771;-62
2022/08/26 07:08:04;;;;;;;21.73;10.02;;;22.20;1.00;;;;;;5049990;28;20220;-62
2022/08/26 07:10:31;;;;;;;19.15;10.32;;;22.50;1.00;;;;;;5035131;28;20473;-62
2022/08/26 07:12:58;;;;;;;13.88;10.15;;;22.40;1.00;;;;;;5053037;28;20223;-61
2022/08/26 07:15:25;;;;;;;17.60;10.40;;;22.40;1.00;;;;;;5048073;28;20516;-62
2022/08/26 07:17:53;;;;;;;18.13;11.00;;;22.40;1.00;;;;;;5047245;28;20216;-62
2022/08/26 07:20:20;;;;;;;13.52;10.50;;;22.40;1.00;;;;;;5022366;28;20665;-62
2022/08/26 07:22:46;;;;;;;22.45;11.43;;;22.50;1.00;;;;;;5032281;28;20349;-62
2022/08/26 07:25:13;;;;;;;12.15;10.23;;;22.50;1.00;;;;;;5042676;28;20878;-62
2022/08/26 07:27:40;;;;;;;22.02;10.30;;;22.80;1.00;;;;;;5039885;28;20664;-62
2022/08/26 07:30:08;;;;;;;17.40;9.88;;;22.60;1.00;;;;;;5048240;28;20222;-62
2022/08/26 07:32:36;;;;;;;18.67;10.23;;;22.60;1.00;;;;;;5049499;28;20223;-61
2022/08/26 07:35:06;;;;;;;17.33;10.50;;;22.80;1.00;;;;;;5025094;28;20617;-62
2022/08/26 07:37:34;;;;;;;19.00;11.40;;;22.80;1.00;;;;;;5041190;28;20217;-62
2022/08/26 07:40:01;;;;;;;15.93;9.70;;;21.70;1.00;;;;;;5043797;28;20286;-62
2022/08/26 07:42:28;;;;;;;16.52;10.00;;;22.80;1.00;;;;;;5044512;28;20220;-62
2022/08/26 07:44:54;;;;;;;17.75;11.02;;;22.70;1.00;;;;;;5057899;28;20200;-62
2022/08/26 07:47:21;;;;;;;15.27;10.93;;;23.10;1.00;;;;;;5051700;28;20219;-62
2022/08/26 07:49:48;;;;;;;17.83;10.55;;;23.10;1.00;;;;;;5029928;28;20753;-62
2022/08/26 07:52:16;;;;;;;15.05;9.73;;;23.00;1.00;;;;;;5049831;28;20788;-62
2022/08/26 07:54:43;;;;;;;15.93;10.95;;;23.00;1.00;;;;;;5031493;28;20246;-62
2022/08/26 07:57:10;;;;;;;28.23;10.57;;;23.20;1.00;;;;;;5056315;28;20823;-62
2022/08/26 07:59:37;;;;;;;16.17;10.60;;;23.20;1.00;;;;;;5031487;28;20232;-63
2022/08/26 08:02:04;;;;;;;18.05;9.60;;;23.30;1.00;;;;;;5037620;28;20223;-62
2022/08/26 08:04:31;;;;;;;16.45;11.25;;;23.40;1.00;;;;;;5017751;28;20220;-62
2022/08/26 08:06:58;;;;;;;20.20;10.57;;;23.20;1.00;;;;;;5050711;28;20220;-63
2022/08/26 08:09:26;;;;;;;22.40;10.35;;;23.40;99.90;;;;;;5036812;28;20236;-62
2022/08/26 08:11:53;;;;;;;18.73;9.30;;;23.30;99.90;;;;;;5037372;28;20242;-62
2022/08/26 08:14:20;;;;;;;14.68;9.50;;;23.50;99.90;;;;;;5047276;28;20224;-62
2022/08/26 08:16:47;;;;;;;14.38;10.00;;;23.40;99.90;;;;;;5042439;28;20721;-62
2022/08/26 08:19:15;;;;;;;22.45;11.00;;;23.60;99.90;;;;;;5031261;28;20247;-62
2022/08/26 08:21:42;;;;;;;19.20;9.85;;;23.60;99.90;;;;;;5041485;28;21010;-62
2022/08/26 08:24:10;;;;;;;16.67;11.02;;;23.60;99.90;;;;;;5043256;28;20213;-62
2022/08/26 08:26:39;;;;;;;17.23;10.75;;;21.60;99.90;;;;;;5038068;28;20455;-62
2022/08/26 08:29:07;;;;;;;20.10;11.70;;;23.70;99.90;;;;;;5043384;28;20225;-62
2022/08/26 08:31:35;;;;;;;20.77;11.95;;;23.60;99.90;;;;;;5049293;28;20209;-62
2022/08/26 08:34:02;;;;;;;19.77;11.93;;;23.80;99.90;;;;;;5042425;28;20225;-61
2022/08/26 08:36:29;;;;;;;25.30;12.95;;;23.80;99.90;;;;;;5033562;28;20224;-62
2022/08/26 08:38:56;;;;;;;18.52;11.65;;;24.10;99.90;;;;;;5045747;28;20270;-62
2022/08/26 08:41:38;;;;;;;23.27;14.52;;;24.00;99.90;;;;;;5040188;28;20239;-62
2022/08/26 08:44:11;;;;;;;21.50;13.63;;;24.00;99.90;;;;;;5049514;28;20240;-62
2022/08/26 08:46:41;;;;;;;26.10;11.88;;;24.00;99.90;;;;;;5051512;28;20219;-62
2022/08/26 08:49:09;;;;;;;17.55;11.63;;;24.10;99.90;;;;;;5049435;28;20220;-62
2022/08/26 08:51:44;;;;;;;18.38;11.32;;;24.10;99.90;;;;;;5034610;28;20223;-61
2022/08/26 08:54:11;;;;;;;19.10;11.52;;;23.90;99.90;;;;;;5045762;28;20235;-62
2022/08/26 08:56:41;;;;;;;19.42;10.73;;;24.20;99.90;;;;;;5047594;28;20597;-62
2022/08/26 08:59:15;;;;;;;18.80;11.93;;;24.10;1.00;;;;;;5038735;28;20229;-62
2022/08/26 09:01:53;;;;;;;24.35;11.25;;;24.10;1.00;;;;;;5060447;28;20301;-62
2022/08/26 09:04:50;;;;;;;21.08;11.10;;;24.20;1.00;;;;;;5063275;28;20211;-62
2022/08/26 09:07:21;;;;;;;22.63;11.20;;;24.10;1.00;;;;;;5042246;28;20216;-63
2022/08/26 09:09:52;;;;;;;22.08;12.18;;;24.20;1.00;;;;;;5046402;28;20199;-63
2022/08/26 09:12:24;;;;;;;17.75;10.98;;;24.20;1.00;;;;;;5055364;28;20232;-63
2022/08/26 09:14:56;;;;;;;26.52;11.10;;;24.20;1.00;;;;;;5038562;28;20255;-62
2022/08/26 09:17:35;;;;;;;26.88;11.65;;;24.40;1.00;;;;;;5055844;28;20216;-62
2022/08/26 09:20:14;;;;;;;23.17;12.35;;;24.20;1.00;;;;;;5050999;28;20276;-63
2022/08/26 09:22:41;;;;;;;19.30;10.45;;;24.20;99.90;;;;;;5034014;28;20227;-62
2022/08/26 09:25:11;;;;;;;24.30;11.27;;;24.20;99.90;;;;;;5042180;28;20587;-63
2022/08/26 09:27:41;;;;;;;19.55;10.95;;;24.20;99.90;;;;;;5039261;28;20208;-62
2022/08/26 09:30:13;;;;;;;20.52;12.18;;;24.20;1.00;;;;;;5046680;22;20532;-63
2022/08/26 09:32:40;;;;;;;24.67;12.10;;;24.20;1.00;;;;;;5042612;28;20346;-62
2022/08/26 09:35:10;;;;;;;19.58;10.77;;;25.00;99.90;;;;;;5030725;28;20713;-62
2022/08/26 09:37:41;;;;;;;13.73;10.27;;;24.50;1.00;;;;;;5015929;28;20232;-62
2022/08/26 09:40:26;;;;;;;14.98;10.82;;;24.30;1.00;;;;;;5030791;28;20224;-62
2022/08/26 09:43:10;;;;;;;17.73;11.02;;;;;;;;;;5022687;28;20226;-62
2022/08/26 09:45:40;;;;;;;18.70;13.00;;;24.50;1.00;;;;;;5040633;28;20213;-62
2022/08/26 09:48:08;;;;;;;18.33;12.57;;;24.60;99.90;;;;;;5030550;28;20240;-62
2022/08/26 09:50:36;;;;;;;18.67;11.27;;;;;;;;;;5013029;28;20217;-62
2022/08/26 09:53:12;;;;;;;17.75;11.63;;;22.90;1.00;;;;;;5006197;28;20245;-62
2022/08/26 09:55:41;;;;;;;24.27;11.57;;;21.20;1.00;;;;;;5033658;28;20224;-62
2022/08/26 09:58:13;;;;;;;28.08;12.68;;;24.60;1.00;;;;;;5028876;28;20255;-63
2022/08/26 10:00:52;;;;;;;24.25;12.48;;;24.60;1.00;;;;;;5015192;28;20721;-63
2022/08/26 10:03:25;;;;;;;13.98;11.02;;;24.50;99.90;;;;;;5048427;28;20204;-61
2022/08/26 10:05:57;;;;;;;19.35;12.38;;;;;;;;;;5029552;28;20302;-62
2022/08/26 10:08:25;;;;;;;23.13;12.52;;;;;;;;;;5010978;28;20247;-62
2022/08/26 10:10:55;;;;;;;17.85;12.95;;;24.70;1.00;;;;;;5030889;28;20225;-61
2022/08/26 10:13:26;;;;;;;15.27;12.00;;;24.70;99.90;;;;;;5044803;28;20781;-61
2022/08/26 10:16:05;;;;;;;30.83;12.25;;;24.70;1.00;;;;;;5030093;28;22204;-62
2022/08/26 10:18:36;;;;;;;23.20;12.80;;;24.70;99.90;;;;;;5031268;28;20225;-61
2022/08/26 10:21:08;;;;;;;18.17;11.45;;;24.80;99.90;;;;;;5031861;28;21128;-62
2022/08/26 10:23:40;;;;;;;25.23;11.07;;;24.80;99.90;;;;;;5031817;28;20208;-62
2022/08/26 10:26:13;;;;;;;22.67;12.35;;;24.90;99.90;;;;;;5020016;28;20215;-62
2022/08/26 10:28:46;;;;;;;16.35;11.32;;;24.50;1.00;;;;;;5042720;28;20221;-62
2022/08/26 10:31:34;;;;;;;21.95;11.88;;;25.20;1.00;;;;;;5016341;28;20744;-62
2022/08/26 10:34:01;;;;;;;17.50;11.48;;;25.30;1.00;;;;;;5038326;28;20220;-62
2022/08/26 10:36:49;;;;;;;17.17;10.65;;;;;;;;;;5024466;28;20241;-62
2022/08/26 10:39:23;;;;;;;21.55;11.77;;;25.40;99.90;;;;;;5025062;28;20209;-62
2022/08/26 10:41:55;;;;;;;15.95;10.18;;;25.40;45.10;;;;;;5024545;28;20224;-62
2022/08/26 10:44:25;;;;;;;20.23;11.45;;;25.40;1.00;;;;;;5025072;28;20225;-63
2022/08/26 10:47:01;;;;;;;16.08;11.15;;;25.50;99.90;;;;;;5029951;28;20236;-62
2022/08/26 10:49:28;;;;;;;13.10;9.90;;;;;;;;;;5037367;28;20935;-62
2022/08/26 10:51:59;;;;;;;18.48;10.70;;;;;;;;;;5030683;28;20382;-62
2022/08/26 10:54:33;;;;;;;18.80;10.82;;;25.80;1.00;;;;;;5024194;28;20629;-63
2022/08/26 10:57:08;;;;;;;23.92;11.38;;;25.90;1.00;;;;;;4996758;28;20227;-62
2022/08/26 10:59:45;;;;;;;19.77;11.40;;;26.00;99.90;;;;;;5028513;28;20223;-62
2022/08/26 11:02:20;;;;;;;22.67;11.18;;;26.00;1.00;;;;;;5005244;28;20236;-63
2022/08/26 11:04:52;;;;;;;14.48;10.48;;;26.00;99.90;;;;;;5039034;28;20229;-62
2022/08/26 11:07:31;;;;;;;28.77;11.07;;;26.10;1.00;;;;;;5008096;28;20225;-63
2022/08/26 11:09:59;;;;;;;19.67;10.98;;;26.10;99.90;;;;;;5019397;28;20260;-63
2022/08/26 11:12:47;;;;;;;17.08;10.57;;;26.10;32.60;;;;;;4991788;28;20205;-63
2022/08/26 11:15:36;;;;;;;18.80;10.30;;;26.10;1.00;;;;;;5015997;28;20236;-63
2022/08/26 11:18:06;;;;;;;19.63;11.57;;;25.90;1.00;;;;;;5003792;28;20419;-63
2022/08/26 11:20:37;;;;;;;17.65;11.82;;;26.10;1.00;;;;;;5027083;28;20224;-63
2022/08/26 11:23:44;;;;;;;20.27;10.38;;;26.10;1.00;;;;;;5009471;28;20900;-63
2022/08/26 11:26:17;;;;;;;23.63;12.95;;;25.90;1.00;;;;;;5003608;28;20221;-63
2022/08/26 11:28:47;;;;;;;16.98;11.32;;;25.90;1.00;;;;;;5023449;28;20228;-63
2022/08/26 11:31:55;;;;;;;18.85;12.57;;;26.00;99.90;;;;;;5018140;28;21464;-63
2022/08/26 11:34:55;;;;;;;20.90;13.55;;;26.00;99.90;;;;;;5032693;28;20232;-63
2022/08/26 11:37:29;;;;;;;20.13;12.80;;;26.10;1.00;;;;;;5039827;28;20308;-62
2022/08/26 11:39:56;;;;;;;17.73;12.32;;;26.20;99.90;;;;;;5012040;28;20221;-63
2022/08/26 11:42:30;;;;;;;19.23;12.00;;;26.10;99.90;;;;;;5002609;28;20232;-63
2022/08/26 11:44:58;;;;;;;17.60;12.18;;;26.20;67.90;;;;;;5022001;28;20223;-63
2022/08/26 11:47:28;;;;;;;26.95;13.43;;;26.30;1.00;;;;;;5029805;28;20243;-63
2022/08/26 11:50:11;;;;;;;20.60;13.20;;;26.20;1.00;;;;;;5018478;28;20229;-63
2022/08/26 11:52:38;;;;;;;17.75;11.98;;;26.30;1.00;;;;;;5036504;28;20217;-63
2022/08/26 11:55:09;;;;;;;16.75;12.63;;;26.30;1.00;;;;;;5015587;28;20224;-63
2022/08/26 11:57:43;;;;;;;21.08;13.45;;;26.30;1.00;;;;;;4991110;28;20201;-64
2022/08/26 12:00:17;;;;;;;22.33;11.48;;;26.20;1.00;;;;;;5028456;28;20210;-63
2022/08/26 12:02:44;;;;;;;29.10;14.05;;;26.30;58.40;;;;;;5020237;28;21942;-63
2022/08/26 12:05:24;;;;;;;19.70;12.52;;;26.20;1.00;;;;;;5030724;28;20220;-63
2022/08/26 12:07:52;;;;;;;20.27;12.98;;;26.20;1.00;;;;;;5034431;28;20241;-63
2022/08/26 12:10:28;;;;;;;23.85;12.52;;;26.20;99.90;;;;;;5006869;28;20204;-63
2022/08/26 12:12:57;;;;;;;26.33;13.30;;;26.60;99.90;;;;;;5001084;28;20204;-63
2022/08/26 12:15:25;;;;;;;40.33;13.55;;;26.30;99.90;;;;;;5029203;28;20258;-63
2022/08/26 12:17:52;;;;;;;20.90;14.30;;;26.30;1.00;;;;;;5016226;28;20229;-63
2022/08/26 12:20:47;;;;;;;24.75;15.05;;;26.30;99.90;;;;;;5026830;28;20200;-63
2022/08/26 12:23:37;;;;;;;24.50;16.48;;;26.30;54.20;;;;;;5037100;28;20229;-63
2022/08/26 12:26:08;;;;;;;19.40;15.48;;;26.30;99.90;;;;;;5012806;28;20224;-63
2022/08/26 12:28:42;;;;;;;22.50;15.75;;;26.10;1.00;;;;;;4999461;28;20714;-63
2022/08/26 12:31:09;;;;;;;21.25;15.85;;;26.00;1.00;;;;;;5020465;28;20229;-63
2022/08/26 12:33:36;;;;;;;24.38;15.18;;;25.80;1.00;;;;;;5018227;28;20251;-63
2022/08/26 12:36:06;;;;;;;24.58;16.90;;;25.70;99.90;;;;;;5025781;28;20227;-63
2022/08/26 12:38:35;;;;;;;25.52;15.75;;;25.50;99.90;;;;;;5028092;28;20235;-62
2022/08/26 12:41:02;;;;;;;24.02;15.70;;;25.40;30.70;;;;;;5034480;28;20228;-62
2022/08/26 12:43:41;;;;;;;23.38;13.98;;;25.30;99.90;;;;;;5007318;28;20878;-63
2022/08/26 12:46:11;;;;;;;21.77;13.93;;;25.30;99.90;;;;;;5043404;28;21219;-62
2022/08/26 12:48:42;;;;;;;22.10;13.70;;;25.20;99.90;;;;;;5025525;28;20208;-63
2022/08/26 12:51:19;;;;;;;23.65;12.82;;;25.00;1.00;;;;;;5029366;28;20749;-63
2022/08/26 12:53:46;;;;;;;23.00;13.07;;;25.10;1.00;;;;;;5036407;28;20201;-63
2022/08/26 12:56:33;;;;;;;26.83;12.88;;;25.20;99.90;;;;;;5025181;28;20196;-63
2022/08/26 12:59:04;;;;;;;25.63;13.32;;;25.40;3.10;;;;;;5017077;28;20220;-63
2022/08/26 13:01:37;;;;;;;26.70;13.25;;;25.30;1.00;;;;;;5038915;28;20741;-62
2022/08/26 13:04:06;;;;;;;21.75;12.20;;;25.10;58.70;;;;;;5025765;28;20308;-63